createdAt,value
2016-12-30T00:00:06.181Z,1033.41
2016-12-30T00:01:17.784Z,1033.39
2016-12-30T00:02:29.388Z,1033.37
2016-12-30T00:03:40.784Z,1033.35
2016-12-30T00:04:52.226Z,1033.36
2016-12-30T00:06:03.621Z,1033.38
2016-12-30T00:07:15.018Z,1033.41
2016-12-30T00:08:26.416Z,1033.37
2016-12-30T00:09:37.812Z,1033.34
2016-12-30T00:10:49.259Z,1033.35
2016-12-30T00:12:00.657Z,1033.37
2016-12-30T00:13:12.064Z,1033.39
2016-12-30T00:14:23.661Z,1033.4
2016-12-30T00:15:35.067Z,1033.37
2016-12-30T00:16:46.522Z,1033.43
2016-12-30T00:17:58.149Z,1033.38
2016-12-30T00:19:09.554Z,1033.42
2016-12-30T00:20:21.148Z,1033.4
2016-12-30T00:21:32.540Z,1033.39
2016-12-30T00:22:44.087Z,1033.4
2016-12-30T00:23:55.479Z,1033.37
2016-12-30T00:25:06.881Z,1033.39
2016-12-30T00:26:18.282Z,1033.37
2016-12-30T00:27:29.873Z,1033.37
2016-12-30T00:28:41.325Z,1033.38
2016-12-30T00:29:52.719Z,1033.4
2016-12-30T00:31:04.120Z,1033.4
2016-12-30T00:32:15.723Z,1033.41
2016-12-30T00:33:27.524Z,1033.41
2016-12-30T00:34:38.968Z,1033.36
2016-12-30T00:35:50.365Z,1033.36
2016-12-30T00:37:01.756Z,1033.34
2016-12-30T00:38:13.357Z,1033.33
2016-12-30T00:39:25.153Z,1033.33
2016-12-30T00:40:36.701Z,1033.32
2016-12-30T00:41:48.094Z,1033.28
2016-12-30T00:42:59.486Z,1033.26
2016-12-30T00:44:10.892Z,1033.2
2016-12-30T00:45:22.292Z,1033.2
2016-12-30T00:46:33.742Z,1033.2
2016-12-30T00:47:45.143Z,1033.22
2016-12-30T00:48:56.746Z,1033.19
2016-12-30T00:50:08.137Z,1033.23
2016-12-30T00:51:19.544Z,1033.2
2016-12-30T00:52:31.087Z,1033.23
2016-12-30T00:53:42.483Z,1033.22
2016-12-30T00:54:53.879Z,1033.26
2016-12-30T00:56:05.282Z,1033.33
2016-12-30T00:57:16.676Z,1033.3
2016-12-30T00:58:28.128Z,1033.31
2016-12-30T00:59:39.728Z,1033.29
2016-12-30T01:00:51.124Z,1033.29
2016-12-30T01:02:02.531Z,1033.31
2016-12-30T01:03:13.929Z,1033.26
2016-12-30T01:04:25.576Z,1033.24
2016-12-30T01:05:36.972Z,1033.3
2016-12-30T01:06:48.370Z,1033.28
2016-12-30T01:07:59.761Z,1033.28
2016-12-30T01:09:11.155Z,1033.35
2016-12-30T01:10:22.815Z,1033.32
2016-12-30T01:11:34.242Z,1033.32
2016-12-30T01:12:45.633Z,1033.34
2016-12-30T01:13:57.436Z,1033.26
2016-12-30T01:15:09.069Z,1033.3
2016-12-30T01:16:20.513Z,1033.31
2016-12-30T01:17:32.113Z,1033.31
2016-12-30T01:18:43.507Z,1033.29
2016-12-30T01:19:54.908Z,1033.31
2016-12-30T01:21:06.304Z,1033.31
2016-12-30T01:22:17.840Z,1033.3
2016-12-30T01:23:29.229Z,1033.31
2016-12-30T01:24:40.625Z,1033.26
2016-12-30T01:25:52.224Z,1033.29
2016-12-30T01:27:03.616Z,1033.23
2016-12-30T01:28:15.066Z,1033.23
2016-12-30T01:29:26.460Z,1033.24
2016-12-30T01:30:37.864Z,1033.18
2016-12-30T01:31:49.262Z,1033.13
2016-12-30T01:33:00.871Z,1033.21
2016-12-30T01:34:12.416Z,1033.18
2016-12-30T01:35:23.814Z,1033.24
2016-12-30T01:36:35.212Z,1033.2
2016-12-30T01:37:46.634Z,1033.22
2016-12-30T01:38:58.032Z,1033.22
2016-12-30T01:40:09.683Z,1033.23
2016-12-30T01:41:21.285Z,1033.25
2016-12-30T01:42:32.877Z,1033.22
2016-12-30T01:43:44.280Z,1033.19
2016-12-30T01:44:55.675Z,1033.24
2016-12-30T01:46:07.123Z,1033.21
2016-12-30T01:47:18.523Z,1033.19
2016-12-30T01:48:29.924Z,1033.25
2016-12-30T01:49:41.525Z,1033.24
2016-12-30T01:50:53.119Z,1033.28
2016-12-30T01:52:04.557Z,1033.24
2016-12-30T01:53:15.943Z,1033.24
2016-12-30T01:54:27.347Z,1033.2
2016-12-30T01:55:38.737Z,1033.21
2016-12-30T01:56:50.132Z,1033.2
2016-12-30T01:58:01.983Z,1033.2
2016-12-30T01:59:13.379Z,1033.21
2016-12-30T02:00:24.776Z,1033.2
2016-12-30T02:01:36.173Z,1033.24
2016-12-30T02:02:47.769Z,1033.26
2016-12-30T02:03:59.223Z,1033.28
2016-12-30T02:05:10.621Z,1033.26
2016-12-30T02:06:22.012Z,1033.25
2016-12-30T02:07:33.410Z,1033.15
2016-12-30T02:08:44.832Z,1033.11
2016-12-30T02:09:56.279Z,1033.13
2016-12-30T02:11:07.874Z,1033.08
2016-12-30T02:12:19.465Z,1033.12
2016-12-30T02:13:30.861Z,1033.07
2016-12-30T02:14:42.259Z,1033.07
2016-12-30T02:15:53.903Z,1033.11
2016-12-30T02:17:05.303Z,1033.11
2016-12-30T02:18:16.705Z,1033.05
2016-12-30T02:19:28.103Z,1033.05
2016-12-30T02:20:39.527Z,1033.1
2016-12-30T02:21:51.178Z,1033.06
2016-12-30T02:23:02.579Z,1033.06
2016-12-30T02:24:13.977Z,1033.07
2016-12-30T02:25:25.574Z,1033.13
2016-12-30T02:26:36.967Z,1033.12
2016-12-30T02:27:48.410Z,1033.15
2016-12-30T02:28:59.811Z,1033.18
2016-12-30T02:30:11.213Z,1033.2
2016-12-30T02:31:22.606Z,1033.25
2016-12-30T02:32:33.997Z,1033.25
2016-12-30T02:33:45.454Z,1033.23
2016-12-30T02:34:56.858Z,1033.26
2016-12-30T02:36:08.684Z,1033.21
2016-12-30T02:37:20.283Z,1033.24
2016-12-30T02:38:31.688Z,1033.2
2016-12-30T02:39:43.138Z,1033.18
2016-12-30T02:40:54.540Z,1033.18
2016-12-30T02:42:05.946Z,1033.18
2016-12-30T02:43:17.346Z,1033.17
2016-12-30T02:44:28.948Z,1033.15
2016-12-30T02:45:40.395Z,1033.17
2016-12-30T02:46:51.999Z,1033.14
2016-12-30T02:48:03.396Z,1033.13
2016-12-30T02:49:14.795Z,1033.18
2016-12-30T02:50:26.214Z,1033.19
2016-12-30T02:51:37.672Z,1033.2
2016-12-30T02:52:49.081Z,1033.2
2016-12-30T02:54:00.483Z,1033.16
2016-12-30T02:55:11.875Z,1033.18
2016-12-30T02:56:23.272Z,1033.15
2016-12-30T02:57:34.727Z,1033.16
2016-12-30T02:58:46.122Z,1033.2
2016-12-30T02:59:57.522Z,1033.18
2016-12-30T03:01:08.916Z,1033.19
2016-12-30T03:02:20.320Z,1033.2
2016-12-30T03:03:31.769Z,1033.2
2016-12-30T03:04:43.171Z,1033.25
2016-12-30T03:05:54.571Z,1033.23
2016-12-30T03:07:05.970Z,1033.23
2016-12-30T03:08:17.367Z,1033.22
2016-12-30T03:09:29.019Z,1033.18
2016-12-30T03:10:40.416Z,1033.19
2016-12-30T03:11:51.815Z,1033.17
2016-12-30T03:13:03.217Z,1033.21
2016-12-30T03:14:14.616Z,1033.17
2016-12-30T03:15:26.061Z,1033.13
2016-12-30T03:16:37.460Z,1033.14
2016-12-30T03:17:48.869Z,1033.12
2016-12-30T03:19:00.478Z,1033.14
2016-12-30T03:20:12.075Z,1033.11
2016-12-30T03:21:23.522Z,1033.07
2016-12-30T03:22:35.123Z,1033.07
2016-12-30T03:23:46.522Z,1033.04
2016-12-30T03:24:57.928Z,1033
2016-12-30T03:26:09.329Z,1033.01
2016-12-30T03:27:21.009Z,1033.01
2016-12-30T03:28:32.610Z,1033.04
2016-12-30T03:29:44.217Z,1033.04
2016-12-30T03:30:55.614Z,1033.01
2016-12-30T03:32:07.008Z,1033.02
2016-12-30T03:33:18.656Z,1032.99
2016-12-30T03:34:30.057Z,1032.97
2016-12-30T03:35:41.462Z,1033
2016-12-30T03:36:52.870Z,1032.96
2016-12-30T03:38:04.477Z,1032.97
2016-12-30T03:39:15.925Z,1032.93
2016-12-30T03:40:27.525Z,1032.89
2016-12-30T03:41:39.154Z,1032.98
2016-12-30T03:42:50.766Z,1032.95
2016-12-30T03:44:02.172Z,1032.98
2016-12-30T03:45:13.621Z,1032.94
2016-12-30T03:46:25.025Z,1032.98
2016-12-30T03:47:36.420Z,1032.96
2016-12-30T03:48:47.819Z,1032.98
2016-12-30T03:49:59.229Z,1032.98
2016-12-30T03:51:10.684Z,1033.02
2016-12-30T03:52:22.077Z,1033
2016-12-30T03:53:33.472Z,1032.99
2016-12-30T03:54:44.866Z,1033
2016-12-30T03:55:56.268Z,1032.97
2016-12-30T03:57:07.716Z,1032.95
2016-12-30T03:58:19.114Z,1032.99
2016-12-30T03:59:30.511Z,1033
2016-12-30T04:00:41.911Z,1033
2016-12-30T04:01:53.334Z,1032.97
2016-12-30T04:03:04.979Z,1032.97
2016-12-30T04:04:16.365Z,1033.01
2016-12-30T04:05:27.966Z,1033.03
2016-12-30T04:06:39.364Z,1033.03
2016-12-30T04:07:50.765Z,1033
2016-12-30T04:09:02.227Z,1032.97
2016-12-30T04:10:13.623Z,1032.99
2016-12-30T04:11:25.222Z,1033.02
2016-12-30T04:12:36.813Z,1033.03
2016-12-30T04:13:48.214Z,1033.05
2016-12-30T04:14:59.658Z,1033
2016-12-30T04:16:11.049Z,1032.97
2016-12-30T04:17:22.456Z,1032.97
2016-12-30T04:18:33.850Z,1032.95
2016-12-30T04:19:45.247Z,1032.97
2016-12-30T04:20:56.701Z,1032.93
2016-12-30T04:22:08.099Z,1032.96
2016-12-30T04:23:19.528Z,1032.93
2016-12-30T04:24:30.923Z,1032.92
2016-12-30T04:25:42.317Z,1032.93
2016-12-30T04:26:53.764Z,1032.93
2016-12-30T04:28:05.159Z,1032.94
2016-12-30T04:29:16.558Z,1032.92
2016-12-30T04:30:27.961Z,1032.92
2016-12-30T04:31:39.360Z,1032.97
2016-12-30T04:32:50.818Z,1032.91
2016-12-30T04:34:02.212Z,1032.92
2016-12-30T04:35:13.609Z,1032.92
2016-12-30T04:36:25.013Z,1032.93
2016-12-30T04:37:36.410Z,1032.93
2016-12-30T04:38:47.862Z,1032.91
2016-12-30T04:39:59.251Z,1032.96
2016-12-30T04:41:10.851Z,1032.92
2016-12-30T04:42:22.250Z,1032.94
2016-12-30T04:43:33.648Z,1032.96
2016-12-30T04:44:45.101Z,1032.94
2016-12-30T04:45:56.491Z,1032.96
2016-12-30T04:47:07.882Z,1032.95
2016-12-30T04:48:19.475Z,1032.96
2016-12-30T04:49:30.867Z,1032.91
2016-12-30T04:50:42.307Z,1032.86
2016-12-30T04:51:53.909Z,1032.85
2016-12-30T04:53:05.307Z,1032.85
2016-12-30T04:54:16.703Z,1032.86
2016-12-30T04:55:28.100Z,1032.9
2016-12-30T04:56:39.553Z,1032.91
2016-12-30T04:57:50.953Z,1032.95
2016-12-30T04:59:02.354Z,1032.95
2016-12-30T05:00:13.756Z,1033.02
2016-12-30T05:01:25.153Z,1033
2016-12-30T05:02:36.598Z,1033.02
2016-12-30T05:03:48.000Z,1033.04
2016-12-30T05:04:59.394Z,1033.07
2016-12-30T05:06:10.793Z,1033.04
2016-12-30T05:07:22.194Z,1033.04
2016-12-30T05:08:33.673Z,1033.06
2016-12-30T05:09:45.077Z,1033.04
2016-12-30T05:10:56.473Z,1033.06
2016-12-30T05:12:07.879Z,1033.04
2016-12-30T05:13:19.276Z,1033.03
2016-12-30T05:14:30.927Z,1033.07
2016-12-30T05:15:42.331Z,1033.11
2016-12-30T05:16:53.722Z,1033.05
2016-12-30T05:18:05.318Z,1033.07
2016-12-30T05:19:16.710Z,1033.06
2016-12-30T05:20:28.170Z,1033.08
2016-12-30T05:21:39.566Z,1033.08
2016-12-30T05:22:50.967Z,1033.12
2016-12-30T05:24:02.765Z,1033.11
2016-12-30T05:25:14.369Z,1033.06
2016-12-30T05:26:25.813Z,1033.06
2016-12-30T05:27:37.215Z,1033.02
2016-12-30T05:28:48.611Z,1033.05
2016-12-30T05:30:00.006Z,1033.03
2016-12-30T05:31:11.423Z,1033.03
2016-12-30T05:32:22.868Z,1033.04
2016-12-30T05:33:34.277Z,1032.98
2016-12-30T05:34:45.676Z,1032.99
2016-12-30T05:35:57.078Z,1032.97
2016-12-30T05:37:08.883Z,1032.94
2016-12-30T05:38:20.328Z,1032.94
2016-12-30T05:39:31.732Z,1032.93
2016-12-30T05:40:43.335Z,1032.97
2016-12-30T05:41:54.934Z,1032.97
2016-12-30T05:43:06.539Z,1032.96
2016-12-30T05:44:17.988Z,1032.94
2016-12-30T05:45:29.384Z,1032.95
2016-12-30T05:46:40.781Z,1032.97
2016-12-30T05:47:52.175Z,1032.95
2016-12-30T05:49:03.792Z,1032.91
2016-12-30T05:50:15.446Z,1032.92
2016-12-30T05:51:26.845Z,1032.88
2016-12-30T05:52:38.249Z,1032.92
2016-12-30T05:53:49.651Z,1032.88
2016-12-30T05:55:01.249Z,1032.91
2016-12-30T05:56:12.907Z,1032.92
2016-12-30T05:57:24.303Z,1032.92
2016-12-30T05:58:35.900Z,1032.96
2016-12-30T05:59:47.300Z,1032.92
2016-12-30T06:00:58.685Z,1032.94
2016-12-30T06:02:10.334Z,1032.97
2016-12-30T06:03:21.732Z,1032.93
2016-12-30T06:04:33.133Z,1032.95
2016-12-30T06:05:44.527Z,1032.96
2016-12-30T06:06:55.927Z,1032.97
2016-12-30T06:08:07.376Z,1032.98
2016-12-30T06:09:18.972Z,1033.01
2016-12-30T06:10:30.366Z,1032.98
2016-12-30T06:11:41.765Z,1033.03
2016-12-30T06:12:53.159Z,1033.04
2016-12-30T06:14:04.614Z,1033.04
2016-12-30T06:15:16.210Z,1033.05
2016-12-30T06:16:27.638Z,1033.07
2016-12-30T06:17:39.038Z,1033.08
2016-12-30T06:18:50.626Z,1033.07
2016-12-30T06:20:02.073Z,1033.09
2016-12-30T06:21:13.505Z,1033.07
2016-12-30T06:22:25.105Z,1033.05
2016-12-30T06:23:36.498Z,1033.02
2016-12-30T06:24:48.294Z,1033.04
2016-12-30T06:25:59.740Z,1033.05
2016-12-30T06:27:11.142Z,1033.02
2016-12-30T06:28:22.541Z,1033.03
2016-12-30T06:29:33.940Z,1033.05
2016-12-30T06:30:45.334Z,1033.02
2016-12-30T06:31:56.980Z,1033.04
2016-12-30T06:33:08.382Z,1033.02
2016-12-30T06:34:19.783Z,1032.97
2016-12-30T06:35:31.182Z,1032.99
2016-12-30T06:36:42.575Z,1032.99
2016-12-30T06:37:54.217Z,1032.99
2016-12-30T06:39:05.617Z,1032.94
2016-12-30T06:40:17.016Z,1033.01
2016-12-30T06:41:28.415Z,1032.98
2016-12-30T06:42:40.012Z,1032.99
2016-12-30T06:43:51.466Z,1033.01
2016-12-30T06:45:02.860Z,1033.03
2016-12-30T06:46:14.262Z,1033.03
2016-12-30T06:47:26.070Z,1033.01
2016-12-30T06:48:37.472Z,1033.04
2016-12-30T06:49:48.924Z,1033.07
2016-12-30T06:51:00.525Z,1033.04
2016-12-30T06:52:11.930Z,1033.04
2016-12-30T06:53:23.329Z,1033.07
2016-12-30T06:54:34.724Z,1033.06
2016-12-30T06:55:46.168Z,1033.06
2016-12-30T06:56:57.560Z,1033.07
2016-12-30T06:58:08.963Z,1033.08
2016-12-30T06:59:20.560Z,1033.1
2016-12-30T07:00:31.949Z,1033.12
2016-12-30T07:01:43.400Z,1033.1
2016-12-30T07:02:54.804Z,1033.07
2016-12-30T07:04:06.207Z,1033.07
2016-12-30T07:05:17.817Z,1033.08
2016-12-30T07:06:29.213Z,1033.07
2016-12-30T07:07:40.659Z,1033.06
2016-12-30T07:08:52.058Z,1033.08
2016-12-30T07:10:03.452Z,1033.08
2016-12-30T07:11:14.871Z,1033.06
2016-12-30T07:12:26.266Z,1033.04
2016-12-30T07:13:37.718Z,1033.08
2016-12-30T07:14:49.112Z,1033.1
2016-12-30T07:16:00.507Z,1033.08
2016-12-30T07:17:11.909Z,1033.12
2016-12-30T07:18:23.703Z,1033.13
2016-12-30T07:19:35.343Z,1033.18
2016-12-30T07:20:46.740Z,1033.2
2016-12-30T07:21:58.336Z,1033.18
2016-12-30T07:23:09.730Z,1033.24
2016-12-30T07:24:21.130Z,1033.26
2016-12-30T07:25:32.579Z,1033.24
2016-12-30T07:26:43.989Z,1033.28
2016-12-30T07:27:55.581Z,1033.28
2016-12-30T07:29:06.982Z,1033.27
2016-12-30T07:30:18.583Z,1033.24
2016-12-30T07:31:30.034Z,1033.28
2016-12-30T07:32:41.624Z,1033.35
2016-12-30T07:33:53.014Z,1033.25
2016-12-30T07:35:04.410Z,1033.29
2016-12-30T07:36:15.804Z,1033.29
2016-12-30T07:37:27.248Z,1033.27
2016-12-30T07:38:38.644Z,1033.2
2016-12-30T07:39:50.033Z,1033.23
2016-12-30T07:41:01.431Z,1033.23
2016-12-30T07:42:13.035Z,1033.23
2016-12-30T07:43:24.482Z,1033.17
2016-12-30T07:44:36.078Z,1033.18
2016-12-30T07:45:47.677Z,1033.15
2016-12-30T07:46:59.075Z,1033.13
2016-12-30T07:48:10.676Z,1033.1
2016-12-30T07:49:22.125Z,1033.07
2016-12-30T07:50:33.724Z,1033.09
2016-12-30T07:51:45.127Z,1033.11
2016-12-30T07:52:56.518Z,1033.06
2016-12-30T07:54:07.925Z,1033.09
2016-12-30T07:55:19.370Z,1033.06
2016-12-30T07:56:30.766Z,1033.11
2016-12-30T07:57:42.159Z,1033.09
2016-12-30T07:58:53.555Z,1033.08
2016-12-30T08:00:04.944Z,1033.06
2016-12-30T08:01:16.395Z,1033.08
2016-12-30T08:02:28.000Z,1033.07
2016-12-30T08:03:39.407Z,1033.08
2016-12-30T08:04:51.007Z,1033.06
2016-12-30T08:06:02.435Z,1033.09
2016-12-30T08:07:13.907Z,1033.14
2016-12-30T08:08:25.306Z,1033.13
2016-12-30T08:09:36.698Z,1033.13
2016-12-30T08:10:48.304Z,1033.1
2016-12-30T08:11:59.899Z,1033.12
2016-12-30T08:13:11.350Z,1033.11
2016-12-30T08:14:22.751Z,1033.11
2016-12-30T08:15:34.150Z,1033.1
2016-12-30T08:16:45.744Z,1033.13
2016-12-30T08:17:57.128Z,1033.1
2016-12-30T08:19:08.588Z,1033.14
2016-12-30T08:20:19.986Z,1033.1
2016-12-30T08:21:31.375Z,1033.16
2016-12-30T08:22:42.772Z,1033.1
2016-12-30T08:23:54.164Z,1033.07
2016-12-30T08:25:05.839Z,1033.11
2016-12-30T08:26:17.237Z,1033.11
2016-12-30T08:27:28.627Z,1033.07
2016-12-30T08:28:40.027Z,1033.05
2016-12-30T08:29:51.433Z,1033.08
2016-12-30T08:31:02.879Z,1033.05
2016-12-30T08:32:14.274Z,1033.02
2016-12-30T08:33:25.671Z,1033.05
2016-12-30T08:34:37.077Z,1033.03
2016-12-30T08:35:48.472Z,1033.04
2016-12-30T08:36:59.934Z,1033.1
2016-12-30T08:38:11.330Z,1033.11
2016-12-30T08:39:22.725Z,1033.16
2016-12-30T08:40:34.111Z,1033.18
2016-12-30T08:41:45.511Z,1033.21
2016-12-30T08:42:56.960Z,1033.26
2016-12-30T08:44:08.367Z,1033.23
2016-12-30T08:45:19.771Z,1033.24
2016-12-30T08:46:31.170Z,1033.22
2016-12-30T08:47:42.573Z,1033.21
2016-12-30T08:48:54.024Z,1033.23
2016-12-30T08:50:05.630Z,1033.17
2016-12-30T08:51:17.444Z,1033.14
2016-12-30T08:52:28.848Z,1033.15
2016-12-30T08:53:40.261Z,1033.14
2016-12-30T08:54:51.716Z,1033.13
2016-12-30T08:56:03.112Z,1033.09
2016-12-30T08:57:14.510Z,1033.12
2016-12-30T08:58:25.914Z,1033.07
2016-12-30T08:59:37.323Z,1033.06
2016-12-30T09:00:48.787Z,1033.08
2016-12-30T09:02:00.199Z,1033.12
2016-12-30T09:03:11.595Z,1033.11
2016-12-30T09:04:23.002Z,1033.1
2016-12-30T09:05:34.406Z,1033.12
2016-12-30T09:06:45.878Z,1033.08
2016-12-30T09:07:57.276Z,1033.03
2016-12-30T09:09:08.682Z,1033.07
2016-12-30T09:10:20.088Z,1033.03
2016-12-30T09:11:31.499Z,1033.03
2016-12-30T09:12:42.962Z,1033
2016-12-30T09:13:54.377Z,1033.01
2016-12-30T09:15:05.783Z,1033.02
2016-12-30T09:16:17.389Z,1033.05
2016-12-30T09:17:28.797Z,1033.06
2016-12-30T09:18:40.253Z,1033.11
2016-12-30T09:19:51.668Z,1033.13
2016-12-30T09:21:03.076Z,1033.1
2016-12-30T09:22:14.486Z,1033.01
2016-12-30T09:23:25.891Z,1033.03
2016-12-30T09:24:37.549Z,1033.07
2016-12-30T09:25:48.968Z,1033.05
2016-12-30T09:27:00.370Z,1033.06
2016-12-30T09:28:11.777Z,1033.04
2016-12-30T09:29:23.183Z,1033.09
2016-12-30T09:30:34.641Z,1033.05
2016-12-30T09:31:46.044Z,1033.03
2016-12-30T09:32:57.666Z,1033
2016-12-30T09:34:09.263Z,1032.97
2016-12-30T09:35:20.669Z,1032.93
2016-12-30T09:36:32.279Z,1032.93
2016-12-30T09:37:43.697Z,1032.86
2016-12-30T09:38:55.307Z,1032.88
2016-12-30T09:40:06.722Z,1032.91
2016-12-30T09:41:18.419Z,1032.91
2016-12-30T09:42:29.829Z,1032.86
2016-12-30T09:43:41.230Z,1032.87
2016-12-30T09:44:52.839Z,1032.92
2016-12-30T09:46:04.464Z,1032.91
2016-12-30T09:47:16.126Z,1032.92
2016-12-30T09:48:27.537Z,1032.95
2016-12-30T09:49:39.351Z,1032.89
2016-12-30T09:50:50.764Z,1032.89
2016-12-30T09:52:02.383Z,1032.9
2016-12-30T09:53:14.052Z,1032.87
2016-12-30T09:54:25.668Z,1032.91
2016-12-30T09:55:37.092Z,1032.91
2016-12-30T09:56:48.507Z,1032.97
2016-12-30T09:58:00.117Z,1032.96
2016-12-30T09:59:11.809Z,1032.94
2016-12-30T10:00:23.218Z,1032.94
2016-12-30T10:01:34.632Z,1032.94
2016-12-30T10:02:46.042Z,1032.94
2016-12-30T10:03:57.452Z,1032.92
2016-12-30T10:05:09.113Z,1032.93
2016-12-30T10:06:20.559Z,1032.94
2016-12-30T10:07:32.175Z,1032.95
2016-12-30T10:08:43.790Z,1032.96
2016-12-30T10:09:55.205Z,1032.94
2016-12-30T10:11:06.619Z,1032.97
2016-12-30T10:12:18.044Z,1032.97
2016-12-30T10:13:29.458Z,1032.94
2016-12-30T10:14:40.873Z,1032.92
2016-12-30T10:15:52.347Z,1032.91
2016-12-30T10:17:03.759Z,1032.91
2016-12-30T10:18:15.174Z,1032.95
2016-12-30T10:19:26.599Z,1032.91
2016-12-30T10:20:38.012Z,1032.92
2016-12-30T10:21:49.435Z,1032.92
2016-12-30T10:23:00.863Z,1032.92
2016-12-30T10:24:12.482Z,1032.93
2016-12-30T10:25:23.931Z,1032.92
2016-12-30T10:26:35.349Z,1032.92
2016-12-30T10:27:46.819Z,1032.92
2016-12-30T10:28:58.234Z,1032.91
2016-12-30T10:30:09.649Z,1032.87
2016-12-30T10:31:21.275Z,1032.85
2016-12-30T10:32:32.747Z,1032.92
2016-12-30T10:33:44.170Z,1032.9
2016-12-30T10:34:55.595Z,1032.89
2016-12-30T10:36:07.205Z,1032.89
2016-12-30T10:37:18.830Z,1032.87
2016-12-30T10:38:30.296Z,1032.81
2016-12-30T10:39:41.700Z,1032.83
2016-12-30T10:40:53.117Z,1032.83
2016-12-30T10:42:04.531Z,1032.83
2016-12-30T10:43:16.173Z,1032.79
2016-12-30T10:44:27.591Z,1032.78
2016-12-30T10:45:39.010Z,1032.8
2016-12-30T10:46:50.429Z,1032.81
2016-12-30T10:48:01.844Z,1032.83
2016-12-30T10:49:13.268Z,1032.79
2016-12-30T10:50:24.744Z,1032.79
2016-12-30T10:51:36.170Z,1032.81
2016-12-30T10:52:47.587Z,1032.81
2016-12-30T10:53:59.201Z,1032.8
2016-12-30T10:55:10.623Z,1032.82
2016-12-30T10:56:22.236Z,1032.81
2016-12-30T10:57:33.652Z,1032.77
2016-12-30T10:58:45.056Z,1032.75
2016-12-30T10:59:56.477Z,1032.74
2016-12-30T11:01:07.971Z,1032.73
2016-12-30T11:02:19.381Z,1032.75
2016-12-30T11:03:30.795Z,1032.72
2016-12-30T11:04:42.215Z,1032.75
2016-12-30T11:05:53.637Z,1032.71
2016-12-30T11:07:05.299Z,1032.69
2016-12-30T11:08:16.920Z,1032.65
2016-12-30T11:09:28.539Z,1032.62
2016-12-30T11:10:39.960Z,1032.62
2016-12-30T11:11:51.378Z,1032.6
2016-12-30T11:13:02.837Z,1032.59
2016-12-30T11:14:14.249Z,1032.55
2016-12-30T11:15:26.069Z,1032.56
2016-12-30T11:16:37.488Z,1032.54
2016-12-30T11:17:48.908Z,1032.52
2016-12-30T11:19:00.527Z,1032.47
2016-12-30T11:20:11.946Z,1032.49
2016-12-30T11:21:23.358Z,1032.47
2016-12-30T11:22:34.975Z,1032.44
2016-12-30T11:23:46.433Z,1032.45
2016-12-30T11:24:57.881Z,1032.42
2016-12-30T11:26:09.298Z,1032.36
2016-12-30T11:27:20.708Z,1032.33
2016-12-30T11:28:32.134Z,1032.31
2016-12-30T11:29:43.605Z,1032.21
2016-12-30T11:30:55.014Z,1032.25
2016-12-30T11:32:06.429Z,1032.26
2016-12-30T11:33:18.038Z,1032.25
2016-12-30T11:34:29.453Z,1032.22
2016-12-30T11:35:40.918Z,1032.23
2016-12-30T11:36:52.330Z,1032.2
2016-12-30T11:38:03.747Z,1032.22
2016-12-30T11:39:15.360Z,1032.25
2016-12-30T11:40:26.970Z,1032.2
2016-12-30T11:41:38.376Z,1032.22
2016-12-30T11:42:49.783Z,1032.23
2016-12-30T11:44:01.397Z,1032.22
2016-12-30T11:45:12.812Z,1032.18
2016-12-30T11:46:24.277Z,1032.16
2016-12-30T11:47:35.685Z,1032.14
2016-12-30T11:48:47.088Z,1032.14
2016-12-30T11:49:58.904Z,1032.23
2016-12-30T11:51:10.511Z,1032.21
2016-12-30T11:52:22.168Z,1032.19
2016-12-30T11:53:33.577Z,1032.15
2016-12-30T11:54:45.194Z,1032.14
2016-12-30T11:55:56.601Z,1032.16
2016-12-30T11:57:08.016Z,1032.24
2016-12-30T11:58:19.480Z,1032.22
2016-12-30T11:59:30.887Z,1032.22
2016-12-30T12:00:42.294Z,1032.2
2016-12-30T12:01:53.695Z,1032.19
2016-12-30T12:03:05.096Z,1032.15
2016-12-30T12:04:16.709Z,1032.16
2016-12-30T12:05:28.110Z,1032.15
2016-12-30T12:06:39.519Z,1032.19
2016-12-30T12:07:51.328Z,1032.14
2016-12-30T12:09:02.724Z,1032.11
2016-12-30T12:10:14.186Z,1032.14
2016-12-30T12:11:25.601Z,1032.15
2016-12-30T12:12:37.217Z,1032.13
2016-12-30T12:13:48.628Z,1032.15
2016-12-30T12:15:00.081Z,1032.13
2016-12-30T12:16:11.692Z,1032.09
2016-12-30T12:17:23.102Z,1032.04
2016-12-30T12:18:34.513Z,1032.02
2016-12-30T12:19:45.950Z,1031.98
2016-12-30T12:20:57.407Z,1031.97
2016-12-30T12:22:08.822Z,1032
2016-12-30T12:23:20.235Z,1032.02
2016-12-30T12:24:31.647Z,1032
2016-12-30T12:25:43.069Z,1032.01
2016-12-30T12:26:54.524Z,1031.96
2016-12-30T12:28:06.135Z,1032.01
2016-12-30T12:29:17.542Z,1031.99
2016-12-30T12:30:29.149Z,1031.95
2016-12-30T12:31:40.557Z,1031.92
2016-12-30T12:32:51.975Z,1031.9
2016-12-30T12:34:03.379Z,1031.88
2016-12-30T12:35:15.395Z,1031.83
2016-12-30T12:36:26.999Z,1031.84
2016-12-30T12:37:38.402Z,1031.83
2016-12-30T12:38:50.016Z,1031.82
2016-12-30T12:40:01.421Z,1031.82
2016-12-30T12:41:13.036Z,1031.82
2016-12-30T12:42:24.493Z,1031.79
2016-12-30T12:43:35.895Z,1031.85
2016-12-30T12:44:47.507Z,1031.86
2016-12-30T12:45:58.920Z,1031.85
2016-12-30T12:47:10.333Z,1031.85
2016-12-30T12:48:21.990Z,1031.82
2016-12-30T12:49:33.402Z,1031.79
2016-12-30T12:50:44.809Z,1031.77
2016-12-30T12:51:56.224Z,1031.74
2016-12-30T12:53:07.633Z,1031.72
2016-12-30T12:54:19.048Z,1031.68
2016-12-30T12:55:30.451Z,1031.64
2016-12-30T12:56:41.862Z,1031.62
2016-12-30T12:57:53.267Z,1031.62
2016-12-30T12:59:04.718Z,1031.6
2016-12-30T13:00:16.213Z,1031.6
2016-12-30T13:01:27.621Z,1031.56
2016-12-30T13:02:39.225Z,1031.52
2016-12-30T13:03:50.638Z,1031.48
2016-12-30T13:05:02.045Z,1031.44
2016-12-30T13:06:13.653Z,1031.43
2016-12-30T13:07:25.063Z,1031.46
2016-12-30T13:08:36.466Z,1031.37
2016-12-30T13:09:48.326Z,1031.41
2016-12-30T13:10:59.761Z,1031.39
2016-12-30T13:12:11.173Z,1031.37
2016-12-30T13:13:22.580Z,1031.38
2016-12-30T13:14:33.991Z,1031.38
2016-12-30T13:15:45.645Z,1031.39
2016-12-30T13:16:57.048Z,1031.4
2016-12-30T13:18:08.451Z,1031.39
2016-12-30T13:19:20.057Z,1031.36
2016-12-30T13:20:31.462Z,1031.37
2016-12-30T13:21:42.923Z,1031.43
2016-12-30T13:22:54.539Z,1031.42
2016-12-30T13:24:05.945Z,1031.42
2016-12-30T13:25:17.353Z,1031.41
2016-12-30T13:26:28.759Z,1031.41
2016-12-30T13:27:40.211Z,1031.38
2016-12-30T13:28:51.624Z,1031.34
2016-12-30T13:30:03.036Z,1031.35
2016-12-30T13:31:14.446Z,1031.36
2016-12-30T13:32:25.843Z,1031.38
2016-12-30T13:33:37.294Z,1031.35
2016-12-30T13:34:48.695Z,1031.36
2016-12-30T13:36:00.109Z,1031.36
2016-12-30T13:37:11.516Z,1031.37
2016-12-30T13:38:23.126Z,1031.38
2016-12-30T13:39:34.585Z,1031.38
2016-12-30T13:40:45.993Z,1031.34
2016-12-30T13:41:57.394Z,1031.34
2016-12-30T13:43:08.810Z,1031.35
2016-12-30T13:44:20.218Z,1031.37
2016-12-30T13:45:31.825Z,1031.39
2016-12-30T13:46:43.231Z,1031.37
2016-12-30T13:47:54.639Z,1031.34
2016-12-30T13:49:06.044Z,1031.36
2016-12-30T13:50:17.703Z,1031.37
2016-12-30T13:51:29.105Z,1031.41
2016-12-30T13:52:40.514Z,1031.39
2016-12-30T13:53:51.918Z,1031.39
2016-12-30T13:55:03.326Z,1031.36
2016-12-30T13:56:14.779Z,1031.37
2016-12-30T13:57:26.179Z,1031.41
2016-12-30T13:58:37.792Z,1031.4
2016-12-30T13:59:49.195Z,1031.37
2016-12-30T14:01:00.603Z,1031.35
2016-12-30T14:02:12.255Z,1031.31
2016-12-30T14:03:23.648Z,1031.35
2016-12-30T14:04:35.052Z,1031.3
2016-12-30T14:05:46.453Z,1031.29
2016-12-30T14:06:57.856Z,1031.32
2016-12-30T14:08:09.316Z,1031.35
2016-12-30T14:09:20.925Z,1031.33
2016-12-30T14:10:32.336Z,1031.35
2016-12-30T14:11:43.742Z,1031.37
2016-12-30T14:12:55.142Z,1031.38
2016-12-30T14:14:06.589Z,1031.41
2016-12-30T14:15:18.193Z,1031.33
2016-12-30T14:16:29.800Z,1031.36
2016-12-30T14:17:41.210Z,1031.35
2016-12-30T14:18:52.618Z,1031.33
2016-12-30T14:20:04.069Z,1031.34
2016-12-30T14:21:15.473Z,1031.34
2016-12-30T14:22:26.879Z,1031.35
2016-12-30T14:23:38.291Z,1031.31
2016-12-30T14:24:49.701Z,1031.34
2016-12-30T14:26:01.360Z,1031.3
2016-12-30T14:27:12.761Z,1031.37